sensor_id;sensor_type;location;lat;lon;timestamp;pressure;altitude;pressure_sealevel;temperature;humidity
22255;BME280;11296;42.684;23.322;2022-09-16T00:02:07;94714.84;;;21.31;100.00
22255;BME280;11296;42.684;23.322;2022-09-16T00:04:33;94647.09;;;20.87;100.00
22255;BME280;11296;42.684;23.322;2022-09-16T00:06:58;94684.34;;;20.97;100.00
22255;BME280;11296;42.684;23.322;2022-09-16T00:09:24;94695.31;;;21.12;100.00
22255;BME280;11296;42.684;23.322;2022-09-16T00:11:50;94662.63;;;20.92;100.00
22255;BME280;11296;42.684;23.322;2022-09-16T00:14:16;94700.03;;;21.04;100.00
22255;BME280;11296;42.684;23.322;2022-09-16T00:16:41;94719.38;;;21.06;100.00
22255;BME280;11296;42.684;23.322;2022-09-16T00:19:07;94708.16;;;20.82;100.00
22255;BME280;11296;42.684;23.322;2022-09-16T00:21:33;94652.88;;;20.60;100.00
22255;BME280;11296;42.684;23.322;2022-09-16T00:23:59;94691.59;;;20.87;100.00
22255;BME280;11296;42.684;23.322;2022-09-16T00:26:24;94707.28;;;20.94;100.00
22255;BME280;11296;42.684;23.322;2022-09-16T00:28:50;94665.66;;;20.65;100.00
22255;BME280;11296;42.684;23.322;2022-09-16T00:31:16;94698.19;;;20.99;100.00
22255;BME280;11296;42.684;23.322;2022-09-16T00:33:42;94709.53;;;21.11;100.00
22255;BME280;11296;42.684;23.322;2022-09-16T00:36:16;94686.50;;;20.91;100.00
22255;BME280;11296;42.684;23.322;2022-09-16T00:38:42;94677.38;;;20.81;100.00
22255;BME280;11296;42.684;23.322;2022-09-16T00:41:15;94684.66;;;20.79;100.00
22255;BME280;11296;42.684;23.322;2022-09-16T00:44:02;94683.53;;;20.74;100.00
22255;BME280;11296;42.684;23.322;2022-09-16T00:46:35;94693.22;;;20.83;100.00
22255;BME280;11296;42.684;23.322;2022-09-16T00:49:21;94678.25;;;20.76;100.00
22255;BME280;11296;42.684;23.322;2022-09-16T00:51:52;94709.47;;;20.88;100.00
22255;BME280;11296;42.684;23.322;2022-09-16T00:54:21;94650.47;;;20.49;100.00
22255;BME280;11296;42.684;23.322;2022-09-16T00:56:50;94708.19;;;20.89;100.00
22255;BME280;11296;42.684;23.322;2022-09-16T00:59:25;94716.94;;;20.95;100.00
22255;BME280;11296;42.684;23.322;2022-09-16T01:01:53;94734.59;;;20.87;100.00
22255;BME280;11296;42.684;23.322;2022-09-16T01:04:31;94664.66;;;20.40;100.00
22255;BME280;11296;42.684;23.322;2022-09-16T01:06:58;94686.19;;;20.51;100.00
22255;BME280;11296;42.684;23.322;2022-09-16T01:09:25;94713.94;;;20.63;100.00
22255;BME280;11296;42.684;23.322;2022-09-16T01:11:52;94687.28;;;20.48;100.00
22255;BME280;11296;42.684;23.322;2022-09-16T01:14:18;94664.47;;;20.38;100.00
22255;BME280;11296;42.684;23.322;2022-09-16T01:34:15;94732.75;;;20.31;100.00
22255;BME280;11296;42.684;23.322;2022-09-16T01:36:50;94732.25;;;20.40;100.00
22255;BME280;11296;42.684;23.322;2022-09-16T01:42:03;94694.31;;;20.29;100.00
22255;BME280;11296;42.684;23.322;2022-09-16T01:55:31;94725.78;;;20.65;100.00
22255;BME280;11296;42.684;23.322;2022-09-16T01:58:12;94695.63;;;20.43;100.00
22255;BME280;11296;42.684;23.322;2022-09-16T02:00:44;94685.31;;;20.21;100.00
22255;BME280;11296;42.684;23.322;2022-09-16T02:03:33;94673.00;;;19.99;100.00
22255;BME280;11296;42.684;23.322;2022-09-16T02:06:23;94711.03;;;20.25;100.00
22255;BME280;11296;42.684;23.322;2022-09-16T02:08:52;94649.94;;;19.79;100.00
22255;BME280;11296;42.684;23.322;2022-09-16T02:11:22;94658.13;;;19.79;100.00
22255;BME280;11296;42.684;23.322;2022-09-16T02:13:50;94674.28;;;20.06;100.00
22255;BME280;11296;42.684;23.322;2022-09-16T02:16:29;94651.09;;;19.91;100.00
22255;BME280;11296;42.684;23.322;2022-09-16T02:18:59;94670.19;;;20.20;100.00
22255;BME280;11296;42.684;23.322;2022-09-16T02:21:31;94699.03;;;20.28;100.00
22255;BME280;11296;42.684;23.322;2022-09-16T02:24:01;94682.66;;;20.36;100.00
22255;BME280;11296;42.684;23.322;2022-09-16T02:26:33;94672.88;;;20.12;100.00
22255;BME280;11296;42.684;23.322;2022-09-16T02:29:09;94667.97;;;20.11;100.00
22255;BME280;11296;42.684;23.322;2022-09-16T02:31:40;94651.19;;;19.78;100.00
22255;BME280;11296;42.684;23.322;2022-09-16T02:34:14;94691.13;;;20.17;100.00
22255;BME280;11296;42.684;23.322;2022-09-16T02:36:43;94676.56;;;19.86;100.00
22255;BME280;11296;42.684;23.322;2022-09-16T02:39:13;94686.75;;;19.86;100.00
22255;BME280;11296;42.684;23.322;2022-09-16T02:41:41;94704.34;;;20.06;100.00
22255;BME280;11296;42.684;23.322;2022-09-16T02:44:08;94687.88;;;19.90;100.00
22255;BME280;11296;42.684;23.322;2022-09-16T02:46:39;94721.91;;;20.18;100.00
22255;BME280;11296;42.684;23.322;2022-09-16T02:49:14;94709.53;;;19.96;100.00
22255;BME280;11296;42.684;23.322;2022-09-16T02:51:59;94705.25;;;20.08;100.00
22255;BME280;11296;42.684;23.322;2022-09-16T02:54:43;94676.56;;;19.86;100.00
22255;BME280;11296;42.684;23.322;2022-09-16T02:57:12;94689.84;;;19.90;100.00
22255;BME280;11296;42.684;23.322;2022-09-16T02:59:38;94704.59;;;19.87;100.00
22255;BME280;11296;42.684;23.322;2022-09-16T03:02:05;94732.13;;;19.96;100.00
22255;BME280;11296;42.684;23.322;2022-09-16T03:04:34;94713.38;;;19.93;100.00
22255;BME280;11296;42.684;23.322;2022-09-16T03:07:02;94695.97;;;19.75;100.00
22255;BME280;11296;42.684;23.322;2022-09-16T03:09:30;94710.16;;;20.02;100.00
22255;BME280;11296;42.684;23.322;2022-09-16T03:17:37;94727.84;;;20.37;100.00
22255;BME280;11296;42.684;23.322;2022-09-16T03:20:25;94735.34;;;20.44;100.00
22255;BME280;11296;42.684;23.322;2022-09-16T03:23:16;94740.16;;;20.58;100.00
22255;BME280;11296;42.684;23.322;2022-09-16T03:31:27;94680.78;;;20.23;100.00
22255;BME280;11296;42.684;23.322;2022-09-16T03:34:08;94742.38;;;20.67;100.00
22255;BME280;11296;42.684;23.322;2022-09-16T03:36:43;94716.19;;;20.36;100.00
22255;BME280;11296;42.684;23.322;2022-09-16T03:39:12;94726.03;;;20.39;100.00
22255;BME280;11296;42.684;23.322;2022-09-16T03:41:38;94752.44;;;20.37;100.00
22255;BME280;11296;42.684;23.322;2022-09-16T03:44:05;94724.06;;;20.19;100.00
22255;BME280;11296;42.684;23.322;2022-09-16T03:46:31;94734.91;;;20.32;100.00
22255;BME280;11296;42.684;23.322;2022-09-16T03:48:57;94676.56;;;19.86;100.00
22255;BME280;11296;42.684;23.322;2022-09-16T03:51:24;94682.03;;;19.86;100.00
22255;BME280;11296;42.684;23.322;2022-09-16T03:53:51;94680.59;;;19.93;100.00
22255;BME280;11296;42.684;23.322;2022-09-16T03:56:17;94689.91;;;19.98;100.00
22255;BME280;11296;42.684;23.322;2022-09-16T03:58:46;94676.66;;;19.73;100.00
22255;BME280;11296;42.684;23.322;2022-09-16T04:01:13;94749.78;;;19.95;100.00
22255;BME280;11296;42.684;23.322;2022-09-16T04:03:40;94708.81;;;19.67;100.00
22255;BME280;11296;42.684;23.322;2022-09-16T04:06:05;94753.03;;;19.94;100.00
22255;BME280;11296;42.684;23.322;2022-09-16T04:08:31;94718.84;;;19.72;100.00
22255;BME280;11296;42.684;23.322;2022-09-16T04:11:00;94710.81;;;19.67;100.00
22255;BME280;11296;42.684;23.322;2022-09-16T04:13:30;94743.31;;;19.85;100.00
22255;BME280;11296;42.684;23.322;2022-09-16T04:15:58;94768.19;;;20.03;100.00
22255;BME280;11296;42.684;23.322;2022-09-16T04:18:29;94734.75;;;19.81;100.00
22255;BME280;11296;42.684;23.322;2022-09-16T04:20:59;94719.28;;;19.56;100.00
22255;BME280;11296;42.684;23.322;2022-09-16T04:23:26;94771.72;;;19.82;100.00
22255;BME280;11296;42.684;23.322;2022-09-16T04:25:57;94751.16;;;19.40;100.00
22255;BME280;11296;42.684;23.322;2022-09-16T04:28:24;94807.97;;;19.90;100.00
22255;BME280;11296;42.684;23.322;2022-09-16T04:30:50;94730.66;;;19.47;100.00
22255;BME280;11296;42.684;23.322;2022-09-16T04:33:16;94763.56;;;19.90;100.00
22255;BME280;11296;42.684;23.322;2022-09-16T04:35:42;94748.28;;;19.87;100.00
22255;BME280;11296;42.684;23.322;2022-09-16T04:38:10;94761.88;;;20.08;100.00
22255;BME280;11296;42.684;23.322;2022-09-16T04:40:36;94749.44;;;19.99;100.00
22255;BME280;11296;42.684;23.322;2022-09-16T04:43:04;94726.94;;;19.85;100.00
22255;BME280;11296;42.684;23.322;2022-09-16T04:45:30;94760.81;;;20.11;100.00
22255;BME280;11296;42.684;23.322;2022-09-16T04:47:56;94788.28;;;20.33;100.00
22255;BME280;11296;42.684;23.322;2022-09-16T04:50:25;94796.16;;;20.44;100.00
22255;BME280;11296;42.684;23.322;2022-09-16T04:52:51;94775.22;;;20.39;100.00
22255;BME280;11296;42.684;23.322;2022-09-16T04:55:17;94778.53;;;20.45;100.00
22255;BME280;11296;42.684;23.322;2022-09-16T04:57:43;94767.03;;;20.47;100.00
22255;BME280;11296;42.684;23.322;2022-09-16T05:00:09;94775.28;;;20.54;100.00
22255;BME280;11296;42.684;23.322;2022-09-16T05:02:38;94792.00;;;20.79;100.00
22255;BME280;11296;42.684;23.322;2022-09-16T05:05:04;94776.78;;;20.63;100.00
22255;BME280;11296;42.684;23.322;2022-09-16T05:07:30;94761.50;;;20.67;100.00
22255;BME280;11296;42.684;23.322;2022-09-16T05:09:55;94748.56;;;20.68;100.00
22255;BME280;11296;42.684;23.322;2022-09-16T05:12:21;94725.78;;;20.65;100.00
22255;BME280;11296;42.684;23.322;2022-09-16T05:14:49;94757.94;;;20.95;100.00
22255;BME280;11296;42.684;23.322;2022-09-16T05:17:14;94742.47;;;20.90;100.00
22255;BME280;11296;42.684;23.322;2022-09-16T05:19:40;94754.03;;;21.04;100.00
22255;BME280;11296;42.684;23.322;2022-09-16T05:22:06;94747.28;;;21.20;100.00
22255;BME280;11296;42.684;23.322;2022-09-16T05:24:35;94751.16;;;21.39;100.00
22255;BME280;11296;42.684;23.322;2022-09-16T05:27:03;94693.50;;;21.22;100.00
22255;BME280;11296;42.684;23.322;2022-09-16T05:29:29;94742.06;;;21.67;100.00
22255;BME280;11296;42.684;23.322;2022-09-16T05:31:55;94755.59;;;21.65;100.00
22255;BME280;11296;42.684;23.322;2022-09-16T05:34:22;94738.59;;;21.74;100.00
22255;BME280;11296;42.684;23.322;2022-09-16T05:36:54;94738.59;;;21.82;100.00
22255;BME280;11296;42.684;23.322;2022-09-16T05:39:21;94727.13;;;21.91;100.00
22255;BME280;11296;42.684;23.322;2022-09-16T05:41:48;94730.94;;;22.03;100.00
22255;BME280;11296;42.684;23.322;2022-09-16T05:44:13;94752.28;;;22.12;100.00
22255;BME280;11296;42.684;23.322;2022-09-16T05:46:40;94748.63;;;22.25;100.00
22255;BME280;11296;42.684;23.322;2022-09-16T05:49:07;94745.84;;;22.32;100.00
22255;BME280;11296;42.684;23.322;2022-09-16T05:51:33;94728.16;;;22.26;100.00
22255;BME280;11296;42.684;23.322;2022-09-16T05:53:59;94708.44;;;22.27;100.00
22255;BME280;11296;42.684;23.322;2022-09-16T05:56:27;94734.50;;;22.43;100.00
22255;BME280;11296;42.684;23.322;2022-09-16T05:58:55;94725.19;;;22.39;100.00
22255;BME280;11296;42.684;23.322;2022-09-16T06:01:24;94693.78;;;22.32;100.00
22255;BME280;11296;42.684;23.322;2022-09-16T06:03:51;94735.19;;;22.66;100.00
22255;BME280;11296;42.684;23.322;2022-09-16T06:06:31;94748.84;;;22.81;100.00
22255;BME280;11296;42.684;23.322;2022-09-16T06:09:22;94766.47;;;23.03;100.00
22255;BME280;11296;42.684;23.322;2022-09-16T06:11:49;94741.41;;;23.07;100.00
22255;BME280;11296;42.684;23.322;2022-09-16T06:14:16;94712.84;;;23.10;100.00
22255;BME280;11296;42.684;23.322;2022-09-16T06:16:43;94711.16;;;23.22;100.00
22255;BME280;11296;42.684;23.322;2022-09-16T06:19:11;94707.66;;;23.21;100.00
22255;BME280;11296;42.684;23.322;2022-09-16T06:21:40;94711.97;;;23.39;100.00
22255;BME280;11296;42.684;23.322;2022-09-16T06:24:12;94700.03;;;23.44;100.00
22255;BME280;11296;42.684;23.322;2022-09-16T06:26:40;94704.28;;;23.63;100.00
22255;BME280;11296;42.684;23.322;2022-09-16T06:29:07;94721.22;;;23.76;100.00
22255;BME280;11296;42.684;23.322;2022-09-16T06:31:34;94713.91;;;23.71;97.37
22255;BME280;11296;42.684;23.322;2022-09-16T06:34:00;94714.41;;;23.77;92.82
22255;BME280;11296;42.684;23.322;2022-09-16T06:36:27;94740.34;;;24.08;93.33
22255;BME280;11296;42.684;23.322;2022-09-16T06:38:54;94703.53;;;23.87;100.00
22255;BME280;11296;42.684;23.322;2022-09-16T06:41:20;94702.56;;;23.75;96.67
22255;BME280;11296;42.684;23.322;2022-09-16T06:43:47;94697.72;;;23.58;97.07
22255;BME280;11296;42.684;23.322;2022-09-16T06:46:18;94741.50;;;24.05;100.00
22255;BME280;11296;42.684;23.322;2022-09-16T06:48:46;94717.06;;;23.92;96.33
22255;BME280;11296;42.684;23.322;2022-09-16T06:51:14;94724.47;;;23.99;91.64
22255;BME280;11296;42.684;23.322;2022-09-16T06:53:41;94749.75;;;24.22;94.14
22255;BME280;11296;42.684;23.322;2022-09-16T06:56:09;94752.41;;;24.30;88.81
22255;BME280;11296;42.684;23.322;2022-09-16T06:58:40;94706.75;;;24.17;85.29
22255;BME280;11296;42.684;23.322;2022-09-16T07:01:13;94708.88;;;24.02;81.51
22255;BME280;11296;42.684;23.322;2022-09-16T07:03:43;94701.88;;;24.08;82.70
22255;BME280;11296;42.684;23.322;2022-09-16T07:06:10;94717.84;;;24.27;83.18
22255;BME280;11296;42.684;23.322;2022-09-16T07:08:38;94710.66;;;24.32;83.32
22255;BME280;11296;42.684;23.322;2022-09-16T07:11:11;94720.16;;;24.48;84.09
22255;BME280;11296;42.684;23.322;2022-09-16T07:13:37;94711.44;;;24.42;79.46
22255;BME280;11296;42.684;23.322;2022-09-16T07:16:06;94739.59;;;24.67;79.29
22255;BME280;11296;42.684;23.322;2022-09-16T07:18:35;94696.41;;;24.43;77.04
22255;BME280;11296;42.684;23.322;2022-09-16T07:21:07;94740.88;;;24.83;77.07
22255;BME280;11296;42.684;23.322;2022-09-16T07:23:39;94736.09;;;24.83;78.47
22255;BME280;11296;42.684;23.322;2022-09-16T07:28:42;94705.69;;;24.81;77.63
22255;BME280;11296;42.684;23.322;2022-09-16T07:31:13;94709.63;;;24.88;79.32
22255;BME280;11296;42.684;23.322;2022-09-16T07:33:42;94743.66;;;25.36;76.96
22255;BME280;11296;42.684;23.322;2022-09-16T07:36:10;94728.06;;;24.95;78.26
22255;BME280;11296;42.684;23.322;2022-09-16T07:38:36;94698.91;;;24.82;76.46
22255;BME280;11296;42.684;23.322;2022-09-16T07:41:11;94742.53;;;25.39;77.97
22255;BME280;11296;42.684;23.322;2022-09-16T07:43:44;94708.69;;;25.46;82.87
22255;BME280;11296;42.684;23.322;2022-09-16T07:46:13;94677.88;;;25.40;78.24
22255;BME280;11296;42.684;23.322;2022-09-16T07:48:42;94709.56;;;25.58;76.69
22255;BME280;11296;42.684;23.322;2022-09-16T07:51:11;94724.06;;;25.95;77.69
22255;BME280;11296;42.684;23.322;2022-09-16T07:53:37;94698.06;;;25.89;71.34
22255;BME280;11296;42.684;23.322;2022-09-16T07:56:05;94676.88;;;25.82;72.84
22255;BME280;11296;42.684;23.322;2022-09-16T07:58:32;94702.38;;;26.37;70.88
22255;BME280;11296;42.684;23.322;2022-09-16T08:00:58;94686.25;;;26.53;69.46
22255;BME280;11296;42.684;23.322;2022-09-16T08:03:24;94696.97;;;26.97;66.59
22255;BME280;11296;42.684;23.322;2022-09-16T08:05:51;94683.63;;;26.93;65.95
22255;BME280;11296;42.684;23.322;2022-09-16T08:08:19;94683.03;;;27.04;67.26
22255;BME280;11296;42.684;23.322;2022-09-16T08:10:52;94695.94;;;27.11;63.54
22255;BME280;11296;42.684;23.322;2022-09-16T08:13:20;94665.22;;;27.27;61.87
22255;BME280;11296;42.684;23.322;2022-09-16T08:15:46;94662.28;;;26.94;63.07
22255;BME280;11296;42.684;23.322;2022-09-16T08:18:14;94709.63;;;27.50;63.69
22255;BME280;11296;42.684;23.322;2022-09-16T08:20:43;94679.81;;;27.58;65.42
22255;BME280;11296;42.684;23.322;2022-09-16T08:23:12;94673.78;;;28.02;60.38
22255;BME280;11296;42.684;23.322;2022-09-16T08:25:58;94682.34;;;27.96;58.47
22255;BME280;11296;42.684;23.322;2022-09-16T08:28:25;94700.09;;;28.03;58.29
22255;BME280;11296;42.684;23.322;2022-09-16T08:30:52;94637.47;;;27.86;57.80
22255;BME280;11296;42.684;23.322;2022-09-16T08:33:17;94628.66;;;27.78;56.28
22255;BME280;11296;42.684;23.322;2022-09-16T08:39:00;94648.81;;;28.11;57.27
22255;BME280;11296;42.684;23.322;2022-09-16T08:49:49;94631.97;;;29.05;56.38
22255;BME280;11296;42.684;23.322;2022-09-16T08:52:30;94614.97;;;28.88;58.56
22255;BME280;11296;42.684;23.322;2022-09-16T08:55:39;94666.94;;;29.22;55.08
22255;BME280;11296;42.684;23.322;2022-09-16T08:58:39;94641.75;;;28.74;54.05
22255;BME280;11296;42.684;23.322;2022-09-16T09:04:14;94637.59;;;28.96;55.57
22255;BME280;11296;42.684;23.322;2022-09-16T09:09:43;94632.63;;;28.83;52.96
22255;BME280;11296;42.684;23.322;2022-09-16T09:12:39;94676.63;;;29.00;52.48
22255;BME280;11296;42.684;23.322;2022-09-16T09:18:19;94680.72;;;29.10;52.33
22255;BME280;11296;42.684;23.322;2022-09-16T09:21:18;94659.41;;;29.13;52.95
22255;BME280;11296;42.684;23.322;2022-09-16T09:26:25;94671.91;;;29.58;53.27
22255;BME280;11296;42.684;23.322;2022-09-16T09:40:41;94653.75;;;28.67;55.17
22255;BME280;11296;42.684;23.322;2022-09-16T09:46:09;94673.59;;;28.96;53.81
22255;BME280;11296;42.684;23.322;2022-09-16T09:48:41;94667.50;;;28.22;56.03
22255;BME280;11296;42.684;23.322;2022-09-16T09:51:21;94660.16;;;28.15;57.02
22255;BME280;11296;42.684;23.322;2022-09-16T09:53:53;94664.06;;;27.91;57.36
22255;BME280;11296;42.684;23.322;2022-09-16T09:56:43;94689.16;;;27.74;60.24
22255;BME280;11296;42.684;23.322;2022-09-16T10:01:57;94680.88;;;26.84;65.97
22255;BME280;11296;42.684;23.322;2022-09-16T10:04:28;94656.78;;;26.56;69.91
22255;BME280;11296;42.684;23.322;2022-09-16T10:06:56;94745.78;;;26.46;76.70
22255;BME280;11296;42.684;23.322;2022-09-16T10:09:25;94687.97;;;25.55;93.08
22255;BME280;11296;42.684;23.322;2022-09-16T10:11:54;94736.50;;;25.24;100.00
22255;BME280;11296;42.684;23.322;2022-09-16T10:14:32;94725.84;;;24.50;100.00
22255;BME280;11296;42.684;23.322;2022-09-16T10:17:04;94744.59;;;24.26;100.00
22255;BME280;11296;42.684;23.322;2022-09-16T10:19:38;94759.44;;;24.06;100.00
22255;BME280;11296;42.684;23.322;2022-09-16T10:22:21;94849.03;;;24.26;100.00
22255;BME280;11296;42.684;23.322;2022-09-16T10:25:00;94827.78;;;24.02;100.00
22255;BME280;11296;42.684;23.322;2022-09-16T10:27:36;94876.81;;;23.49;100.00
22255;BME280;11296;42.684;23.322;2022-09-16T10:30:17;94898.59;;;22.54;100.00
22255;BME280;11296;42.684;23.322;2022-09-16T10:36:00;94906.31;;;20.88;100.00
22255;BME280;11296;42.684;23.322;2022-09-16T10:41:06;94929.19;;;20.78;100.00
22255;BME280;11296;42.684;23.322;2022-09-16T10:43:37;94937.34;;;20.42;100.00
22255;BME280;11296;42.684;23.322;2022-09-16T10:46:06;94976.19;;;20.14;100.00
22255;BME280;11296;42.684;23.322;2022-09-16T10:48:41;94955.41;;;19.90;100.00
22255;BME280;11296;42.684;23.322;2022-09-16T10:51:26;94950.59;;;19.83;100.00
22255;BME280;11296;42.684;23.322;2022-09-16T10:53:57;94952.75;;;19.64;100.00
22255;BME280;11296;42.684;23.322;2022-09-16T10:56:28;94929.72;;;19.39;100.00
22255;BME280;11296;42.684;23.322;2022-09-16T10:59:11;94918.59;;;19.37;100.00
22255;BME280;11296;42.684;23.322;2022-09-16T11:07:08;94831.72;;;19.41;100.00
22255;BME280;11296;42.684;23.322;2022-09-16T11:12:25;94852.72;;;20.57;100.00
22255;BME280;11296;42.684;23.322;2022-09-16T11:15:10;94800.50;;;21.85;100.00
22255;BME280;11296;42.684;23.322;2022-09-16T11:30:54;94730.38;;;29.85;74.81
22255;BME280;11296;42.684;23.322;2022-09-16T11:36:34;94706.88;;;26.71;90.64
22255;BME280;11296;42.684;23.322;2022-09-16T11:39:20;94718.44;;;27.17;85.24
22255;BME280;11296;42.684;23.322;2022-09-16T11:42:34;94724.09;;;27.29;77.65
22255;BME280;11296;42.684;23.322;2022-09-16T11:47:33;94676.09;;;26.27;83.65
22255;BME280;11296;42.684;23.322;2022-09-16T12:04:29;94688.84;;;30.22;62.35
22255;BME280;11296;42.684;23.322;2022-09-16T12:07:16;94655.97;;;29.70;60.05
22255;BME280;11296;42.684;23.322;2022-09-16T12:09:58;94666.97;;;29.45;62.84
22255;BME280;11296;42.684;23.322;2022-09-16T12:12:39;94644.91;;;29.47;63.47
22255;BME280;11296;42.684;23.322;2022-09-16T12:15:21;94698.72;;;28.77;69.51
22255;BME280;11296;42.684;23.322;2022-09-16T12:17:55;94648.22;;;27.61;71.52
22255;BME280;11296;42.684;23.322;2022-09-16T12:20:28;94683.88;;;27.57;79.14
22255;BME280;11296;42.684;23.322;2022-09-16T12:23:16;94673.06;;;26.52;82.93
22255;BME280;11296;42.684;23.322;2022-09-16T12:30:00;94698.78;;;25.43;100.00
22255;BME280;11296;42.684;23.322;2022-09-16T12:38:20;94675.84;;;24.44;100.00
22255;BME280;11296;42.684;23.322;2022-09-16T12:50:05;94741.59;;;24.66;100.00
22255;BME280;11296;42.684;23.322;2022-09-16T12:52:59;94758.84;;;24.67;100.00
22255;BME280;11296;42.684;23.322;2022-09-16T12:56:08;94753.22;;;24.74;100.00
22255;BME280;11296;42.684;23.322;2022-09-16T13:01:21;94739.09;;;24.26;100.00
22255;BME280;11296;42.684;23.322;2022-09-16T13:07:54;94789.25;;;23.61;100.00
22255;BME280;11296;42.684;23.322;2022-09-16T13:10:33;94794.78;;;23.13;100.00
22255;BME280;11296;42.684;23.322;2022-09-16T13:13:01;94789.91;;;22.97;100.00
22255;BME280;11296;42.684;23.322;2022-09-16T13:15:33;94789.84;;;22.49;100.00
22255;BME280;11296;42.684;23.322;2022-09-16T13:21:00;94800.13;;;21.88;100.00
22255;BME280;11296;42.684;23.322;2022-09-16T13:23:32;94808.13;;;21.64;100.00
22255;BME280;11296;42.684;23.322;2022-09-16T13:26:52;94858.34;;;21.74;100.00
22255;BME280;11296;42.684;23.322;2022-09-16T13:32:01;94818.09;;;21.23;100.00
22255;BME280;11296;42.684;23.322;2022-09-16T13:34:30;94829.06;;;21.38;100.00
22255;BME280;11296;42.684;23.322;2022-09-16T13:36:56;94804.78;;;21.27;100.00
22255;BME280;11296;42.684;23.322;2022-09-16T13:39:31;94807.38;;;21.56;100.00
22255;BME280;11296;42.684;23.322;2022-09-16T13:42:15;94765.78;;;21.80;100.00
22255;BME280;11296;42.684;23.322;2022-09-16T13:44:42;94751.94;;;21.93;100.00
22255;BME280;11296;42.684;23.322;2022-09-16T13:49:49;94715.72;;;22.32;100.00
22255;BME280;11296;42.684;23.322;2022-09-16T13:52:23;94679.25;;;22.07;100.00
22255;BME280;11296;42.684;23.322;2022-09-16T13:54:55;94655.00;;;21.96;100.00
22255;BME280;11296;42.684;23.322;2022-09-16T13:57:56;94708.00;;;22.46;100.00
22255;BME280;11296;42.684;23.322;2022-09-16T14:00:33;94672.13;;;22.59;100.00
22255;BME280;11296;42.684;23.322;2022-09-16T14:03:37;94707.75;;;23.06;100.00
22255;BME280;11296;42.684;23.322;2022-09-16T14:14:27;94726.44;;;23.00;100.00
22255;BME280;11296;42.684;23.322;2022-09-16T14:17:01;94744.34;;;23.09;100.00
22255;BME280;11296;42.684;23.322;2022-09-16T14:22:20;94749.13;;;23.01;100.00
22255;BME280;11296;42.684;23.322;2022-09-16T14:24:48;94738.16;;;23.01;100.00
22255;BME280;11296;42.684;23.322;2022-09-16T14:30:15;94705.88;;;23.16;100.00
22255;BME280;11296;42.684;23.322;2022-09-16T14:32:41;94702.22;;;23.14;100.00
22255;BME280;11296;42.684;23.322;2022-09-16T14:35:10;94688.00;;;23.08;100.00
22255;BME280;11296;42.684;23.322;2022-09-16T14:37:42;94674.88;;;22.99;100.00
22255;BME280;11296;42.684;23.322;2022-09-16T14:40:18;94672.31;;;23.01;100.00
22255;BME280;11296;42.684;23.322;2022-09-16T14:42:55;94656.78;;;22.63;100.00
22255;BME280;11296;42.684;23.322;2022-09-16T14:45:24;94688.03;;;23.00;100.00
22255;BME280;11296;42.684;23.322;2022-09-16T14:47:52;94700.56;;;22.86;100.00
22255;BME280;11296;42.684;23.322;2022-09-16T14:50:21;94719.56;;;23.24;100.00
22255;BME280;11296;42.684;23.322;2022-09-16T14:53:01;94691.75;;;22.88;100.00
22255;BME280;11296;42.684;23.322;2022-09-16T14:59:24;94686.63;;;22.92;100.00
22255;BME280;11296;42.684;23.322;2022-09-16T15:01:53;94658.78;;;22.70;100.00
22255;BME280;11296;42.684;23.322;2022-09-16T15:04:27;94691.31;;;23.06;100.00
22255;BME280;11296;42.684;23.322;2022-09-16T15:07:00;94702.75;;;23.20;100.00
22255;BME280;11296;42.684;23.322;2022-09-16T15:12:22;94696.91;;;23.16;100.00
22255;BME280;11296;42.684;23.322;2022-09-16T15:14:54;94654.59;;;22.62;100.00
22255;BME280;11296;42.684;23.322;2022-09-16T15:17:23;94712.25;;;22.87;100.00
22255;BME280;11296;42.684;23.322;2022-09-16T15:19:54;94707.31;;;22.85;100.00
22255;BME280;11296;42.684;23.322;2022-09-16T15:22:22;94687.34;;;22.60;100.00
22255;BME280;11296;42.684;23.322;2022-09-16T15:24:51;94689.34;;;22.59;100.00
22255;BME280;11296;42.684;23.322;2022-09-16T15:27:23;94605.84;;;22.45;100.00
22255;BME280;11296;42.684;23.322;2022-09-16T15:29:56;94586.97;;;22.64;100.00
22255;BME280;11296;42.684;23.322;2022-09-16T15:32:25;94590.25;;;22.63;100.00
22255;BME280;11296;42.684;23.322;2022-09-16T15:35:10;94642.78;;;22.84;100.00
22255;BME280;11296;42.684;23.322;2022-09-16T15:37:36;94611.22;;;22.75;100.00
22255;BME280;11296;42.684;23.322;2022-09-16T15:45:37;94653.00;;;22.91;100.00
22255;BME280;11296;42.684;23.322;2022-09-16T15:48:20;94604.25;;;22.42;100.00
22255;BME280;11296;42.684;23.322;2022-09-16T15:50:53;94627.19;;;22.54;100.00
22255;BME280;11296;42.684;23.322;2022-09-16T15:53:33;94545.03;;;22.07;100.00
22255;BME280;11296;42.684;23.322;2022-09-16T15:58:50;94611.03;;;22.34;100.00
22255;BME280;11296;42.684;23.322;2022-09-16T16:04:10;94593.38;;;22.20;100.00
22255;BME280;11296;42.684;23.322;2022-09-16T16:06:52;94593.56;;;22.14;100.00
22255;BME280;11296;42.684;23.322;2022-09-16T16:09:27;94594.56;;;21.79;100.00
22255;BME280;11296;42.684;23.322;2022-09-16T16:12:04;94608.63;;;21.90;100.00
22255;BME280;11296;42.684;23.322;2022-09-16T16:14:33;94551.78;;;21.36;100.00
22255;BME280;11296;42.684;23.322;2022-09-16T16:19:32;94559.28;;;21.20;100.00
22255;BME280;11296;42.684;23.322;2022-09-16T16:21:58;94552.91;;;21.18;100.00
22255;BME280;11296;42.684;23.322;2022-09-16T16:24:25;94567.28;;;21.26;100.00
22255;BME280;11296;42.684;23.322;2022-09-16T16:26:51;94606.31;;;21.41;100.00
22255;BME280;11296;42.684;23.322;2022-09-16T16:29:52;94546.31;;;20.98;100.00